Corinth, MS

4:58 AM CDT on September 21, 2017 (GMT -0500)
Turner

Weather History for KCRX - November, 2013

Change the Weather History Date:

Sunday, November 17, 2013

  Actual Average Record
Temperature  
Mean Temperature 64 °F -  
Max Temperature 71 °F 63 °F 80 °F (1991)
Min Temperature 57 °F 36 °F 21 °F (1959)
Degree Days  
Heating Degree Days 1    
Growing Degree Days 14 (Base 50)    
Moisture  
Dew Point 63 °F    
Average Humidity 89    
Maximum Humidity 94    
Minimum Humidity 72    
Precipitation  
Precipitation 0.12 in - - ()
Sea Level Pressure  
Sea Level Pressure 29.86 in    
Wind  
Wind Speed 13 mph (South)    
Max Wind Speed 18 mph    
Max Gust Speed 36 mph    
Visibility 8 miles    
Events Rain    
Averages and records for this station are not official NWS values.
T = Trace of Precipitation, MM = Missing Value Source: NWS Daily Summary

Daily Weather History Graph

Daily Weather History Graph

Search for Another Location

Airport or City:

Trip Planner

Search our weather history database for the weather conditions in past years. The results will help you decide how hot, cold, wet, or windy it might be!

Date:

Astronomy

Nov. 17, 2013 Rise Set
Actual Time 6:30 AM CST 4:47 PM CST
Civil Twilight 6:03 AM CST 5:14 PM CST
Nautical Twilight 5:33 AM CST 5:45 PM CST
Astronomical Twilight 5:03 AM CST 6:15 PM CST
Moon 5:04 PM CST (11/17) 6:25 AM CST (11/17)
Length of Visible Light 11h 10m
Length of Day
10h 16m
Full, 100% of the Moon is Illuminated
Nov 17
Full
Nov 25
Last Quarter
Dec 2
New
Dec 9
First Quarter
Dec 17
Full

Hourly Weather History & Observations

Time (CST) Temp. Dew Point Humidity Pressure Visibility Wind Dir Wind Speed Gust Speed Precip Events Conditions
12:10 AM 66.2 °F 60.8 °F 83% 29.95 in 10.0 mi South 12.7 mph 21.9 mph N/A   Overcast
12:30 AM 66.2 °F 60.8 °F 83% 29.95 in 10.0 mi South 15.0 mph 23.0 mph N/A   Overcast
12:50 AM 64.4 °F 60.8 °F 88% 29.93 in 3.0 mi South 16.1 mph 27.6 mph N/A Rain Light Rain
1:10 AM 64.4 °F 62.6 °F 94% 29.92 in 5.0 mi South 15.0 mph 20.7 mph N/A   Overcast
1:30 AM 64.4 °F 62.6 °F 94% 29.92 in 8.0 mi South 16.1 mph 21.9 mph N/A   Overcast
1:50 AM 64.4 °F 62.6 °F 94% 29.92 in 10.0 mi South 17.3 mph - N/A   Overcast
2:10 AM 64.4 °F 62.6 °F 94% 29.92 in 10.0 mi South 13.8 mph 21.9 mph N/A   Overcast
2:30 AM 64.4 °F 62.6 °F 94% 29.91 in 5.0 mi South 15.0 mph 21.9 mph N/A   Overcast
2:50 AM 64.4 °F 62.6 °F 94% 29.90 in 3.0 mi South 13.8 mph 21.9 mph N/A   Overcast
3:10 AM 64.4 °F 62.6 °F 94% 29.90 in 2.5 mi South 18.4 mph 24.2 mph N/A   Overcast
3:30 AM 64.4 °F 62.6 °F 94% 29.90 in 5.0 mi South 16.1 mph 24.2 mph N/A   Overcast
3:50 AM 64.4 °F 62.6 °F 94% 29.89 in 3.0 mi South 11.5 mph 20.7 mph N/A   Overcast
4:10 AM 64.4 °F 62.6 °F 94% 29.89 in 2.0 mi South 13.8 mph - N/A   Overcast
4:30 AM 64.4 °F 62.6 °F 94% 29.88 in 4.0 mi South 13.8 mph 24.2 mph N/A   Overcast
4:50 AM 64.4 °F 62.6 °F 94% 29.87 in 2.5 mi South 15.0 mph 20.7 mph N/A   Overcast
5:10 AM 64.4 °F 62.6 °F 94% 29.86 in 2.5 mi South 18.4 mph 23.0 mph N/A   Overcast
5:30 AM 64.4 °F 62.6 °F 94% 29.86 in 4.0 mi South 15.0 mph - N/A   Overcast
5:50 AM 64.4 °F 62.6 °F 94% 29.86 in 2.5 mi South 17.3 mph 24.2 mph N/A   Overcast
6:10 AM 64.4 °F 62.6 °F 94% 29.85 in 2.5 mi SSE 15.0 mph 23.0 mph N/A Rain Light Rain
6:30 AM 64.4 °F 62.6 °F 94% 29.85 in 3.0 mi South 15.0 mph 23.0 mph N/A   Overcast
6:50 AM 64.4 °F 62.6 °F 94% 29.86 in 5.0 mi South 15.0 mph 20.7 mph N/A   Overcast
7:10 AM 64.4 °F 62.6 °F 94% 29.86 in 10.0 mi South 15.0 mph 21.9 mph N/A   Overcast
7:30 AM 66.2 °F 62.6 °F 88% 29.86 in 10.0 mi South 15.0 mph 21.9 mph N/A   Overcast
7:50 AM 66.2 °F 62.6 °F 88% 29.87 in 10.0 mi South 13.8 mph 23.0 mph N/A Rain Light Rain
8:10 AM 66.2 °F 62.6 °F 88% 29.87 in 10.0 mi South 13.8 mph 23.0 mph N/A   Overcast
8:30 AM 66.2 °F 62.6 °F 88% 29.87 in 8.0 mi South 10.4 mph 19.6 mph 0.01 in Rain Light Rain
8:50 AM 66.2 °F 62.6 °F 88% 29.85 in 2.5 mi South 13.8 mph 23.0 mph 0.02 in Rain Light Rain
9:10 AM 66.2 °F 62.6 °F 88% 29.84 in 3.0 mi South 16.1 mph 24.2 mph 0.02 in Rain Rain
9:30 AM 66.2 °F 62.6 °F 88% 29.85 in 3.0 mi South 12.7 mph 26.5 mph 0.04 in   Mostly Cloudy
9:50 AM 66.2 °F 62.6 °F 88% 29.85 in 4.0 mi South 16.1 mph 21.9 mph 0.06 in Rain Light Rain
10:10 AM 66.2 °F 62.6 °F 88% 29.86 in 10.0 mi South 13.8 mph 21.9 mph N/A   Mostly Cloudy
10:30 AM 66.2 °F 64.4 °F 94% 29.85 in 10.0 mi South 16.1 mph 19.6 mph N/A   Overcast
10:50 AM 66.2 °F 64.4 °F 94% 29.84 in 10.0 mi South 10.4 mph 19.6 mph N/A   Overcast
11:10 AM 68.0 °F 64.4 °F 88% 29.83 in 10.0 mi South 11.5 mph 20.7 mph N/A   Overcast
11:30 AM 68.0 °F 64.4 °F 88% 29.82 in 6.0 mi South 11.5 mph 23.0 mph N/A   Overcast
11:50 AM 68.0 °F 64.4 °F 88% 29.81 in 3.0 mi South 10.4 mph 20.7 mph N/A   Overcast
12:10 PM 68.0 °F 64.4 °F 88% 29.81 in 4.0 mi South 11.5 mph 17.3 mph N/A Rain Light Rain
12:30 PM 68.0 °F 64.4 °F 88% 29.80 in 2.5 mi SSW 11.5 mph 17.3 mph 0.01 in Rain Light Rain
12:50 PM 68.0 °F 64.4 °F 88% 29.79 in 6.0 mi South 11.5 mph 18.4 mph 0.01 in   Overcast
1:10 PM 68.0 °F 66.2 °F 94% 29.79 in 4.0 mi South 9.2 mph - N/A Rain Light Rain
1:30 PM 68.0 °F 66.2 °F 94% 29.78 in 10.0 mi South 11.5 mph - N/A   Mostly Cloudy
1:50 PM 69.8 °F 66.2 °F 88% 29.78 in 10.0 mi South 10.4 mph - N/A   Overcast
2:10 PM 69.8 °F 66.2 °F 88% 29.77 in 10.0 mi SSW 8.1 mph 16.1 mph N/A   Overcast
2:30 PM 69.8 °F 66.2 °F 88% 29.77 in 10.0 mi South 9.2 mph - N/A   Overcast
2:50 PM 69.8 °F 66.2 °F 88% 29.78 in 10.0 mi SSW 10.4 mph - N/A   Overcast
3:10 PM 71.6 °F 66.2 °F 83% 29.79 in 10.0 mi SSW 8.1 mph - N/A   Overcast
3:30 PM 71.6 °F 66.2 °F 83% 29.79 in 10.0 mi SSW 9.2 mph - N/A   Overcast
3:50 PM 71.6 °F 66.2 °F 83% 29.79 in 10.0 mi SSW 12.7 mph 17.3 mph N/A   Overcast
4:10 PM 71.6 °F 66.2 °F 83% 29.78 in 10.0 mi South 9.2 mph - N/A   Mostly Cloudy
4:30 PM 71.6 °F 66.2 °F 83% 29.80 in 10.0 mi SSW 9.2 mph - N/A   Scattered Clouds
4:50 PM 71.6 °F 66.2 °F 83% 29.80 in 10.0 mi SSW 8.1 mph - N/A   Mostly Cloudy
5:10 PM 71.6 °F 68.0 °F 88% 29.80 in 10.0 mi SSW 12.7 mph 17.3 mph N/A   Mostly Cloudy
5:30 PM 71.6 °F 66.2 °F 83% 29.81 in 10.0 mi SSW 10.4 mph 16.1 mph N/A   Partly Cloudy
5:50 PM 71.6 °F 66.2 °F 83% 29.82 in 10.0 mi SSW 9.2 mph - N/A   Partly Cloudy
6:10 PM 71.6 °F 66.2 °F 83% 29.82 in 10.0 mi SSW 10.4 mph - N/A   Mostly Cloudy
6:30 PM 71.6 °F 66.2 °F 83% 29.83 in 10.0 mi SSW 10.4 mph - N/A   Overcast
6:50 PM 71.6 °F 68.0 °F 88% 29.84 in 10.0 mi SW 8.1 mph - N/A   Overcast
7:10 PM 71.6 °F 66.2 °F 83% 29.84 in 10.0 mi SSW 9.2 mph - N/A   Scattered Clouds
7:30 PM 71.6 °F 66.2 °F 83% 29.85 in 10.0 mi SSW 10.4 mph - N/A   Clear
7:50 PM 71.6 °F 68.0 °F 88% 29.86 in 10.0 mi SW 10.4 mph - N/A   Partly Cloudy
8:10 PM 71.6 °F 68.0 °F 88% 29.87 in 10.0 mi SW 8.1 mph - N/A   Clear
8:30 PM 71.6 °F 68.0 °F 88% 29.88 in 10.0 mi SW 6.9 mph - N/A   Clear
8:50 PM 71.6 °F 66.2 °F 83% 29.89 in 10.0 mi WSW 4.6 mph - N/A   Clear
9:10 PM 62.6 °F 53.6 °F 72% 29.94 in 5.0 mi NNW 6.9 mph 35.7 mph 0.02 in   Haze
9:30 PM 59.0 °F 55.4 °F 88% 29.93 in 10.0 mi North 3.5 mph - 0.03 in   Overcast
9:50 PM 59.0 °F 55.4 °F 88% 29.94 in 10.0 mi West 6.9 mph - 0.03 in Rain Light Rain
10:10 PM 59.0 °F 55.4 °F 88% 29.97 in 10.0 mi SW 6.9 mph - N/A Rain Light Rain
10:30 PM 59.0 °F 55.4 °F 88% 29.98 in 10.0 mi Calm Calm - N/A   Mostly Cloudy
10:50 PM 59.0 °F 55.4 °F 88% 29.98 in 10.0 mi Calm Calm - N/A   Overcast
11:10 PM 57.2 °F 55.4 °F 94% 29.99 in 10.0 mi Calm Calm - N/A   Overcast
11:30 PM 57.2 °F 55.4 °F 94% 29.99 in 10.0 mi Calm Calm - N/A   Mostly Cloudy
11:50 PM 57.2 °F 55.4 °F 94% 29.99 in 5.0 mi Calm Calm - N/A   Mostly Cloudy